Time;durP1;ratioP1;P1;durP2;ratioP2;P2;SDS_P1;SDS_P2;PMS_P1;PMS_P2;Temp;Humidity;BMP_temperature;BMP_pressure;BME280_temperature;BME280_humidity;BME280_pressure;Samples;Min_cycle;Max_cycle;Signal;HPM_P1;HPM_P2
2022/06/21 00:00:21;;;;;;;2.60;2.40;;;13.30;80.00;;;;;;972043;145;27323;-76
2022/06/21 00:02:47;;;;;;;2.50;2.30;;;13.30;80.10;;;;;;970760;145;27420;-76
2022/06/21 00:05:14;;;;;;;3.20;2.97;;;13.20;80.20;;;;;;976834;145;27321;-75
2022/06/21 00:07:41;;;;;;;2.87;2.40;;;13.20;80.30;;;;;;971195;145;27335;-75
2022/06/21 00:10:07;;;;;;;2.40;2.20;;;13.20;80.60;;;;;;975735;145;27382;-76
2022/06/21 00:12:34;;;;;;;3.23;2.43;;;13.20;80.70;;;;;;970408;145;27425;-75
2022/06/21 00:15:00;;;;;;;3.10;2.80;;;13.10;80.70;;;;;;973719;145;27286;-76
2022/06/21 00:17:27;;;;;;;2.57;2.20;;;13.10;81.00;;;;;;976092;145;27355;-76
2022/06/21 00:19:54;;;;;;;2.40;2.20;;;13.10;81.20;;;;;;974846;145;27411;-76
2022/06/21 00:22:20;;;;;;;4.50;2.73;;;13.10;81.30;;;;;;976079;145;27335;-76
2022/06/21 00:24:47;;;;;;;2.53;2.20;;;13.00;81.70;;;;;;975070;145;27316;-75
2022/06/21 00:27:13;;;;;;;3.50;2.60;;;13.00;81.80;;;;;;973141;145;27442;-75
2022/06/21 00:29:40;;;;;;;2.37;2.20;;;13.00;81.90;;;;;;976630;145;27346;-75
2022/06/21 00:32:06;;;;;;;2.60;2.40;;;12.90;82.10;;;;;;974573;145;27360;-76
2022/06/21 00:34:33;;;;;;;4.37;2.63;;;12.90;82.30;;;;;;972834;145;27286;-76
2022/06/21 00:37:00;;;;;;;4.20;2.90;;;12.90;82.60;;;;;;971936;145;27437;-76
2022/06/21 00:39:26;;;;;;;3.47;2.60;;;12.80;82.80;;;;;;974351;145;27424;-75
2022/06/21 00:42:02;;;;;;;2.93;2.73;;;12.80;83.10;;;;;;974610;145;27730;-75
2022/06/21 00:44:34;;;;;;;4.27;2.97;;;12.80;83.40;;;;;;974778;145;27690;-76
2022/06/21 00:47:04;;;;;;;3.37;2.70;;;12.80;83.70;;;;;;973330;145;27362;-76
2022/06/21 00:49:33;;;;;;;2.90;2.40;;;12.80;83.90;;;;;;975309;145;27367;-76
2022/06/21 00:52:02;;;;;;;3.30;3.00;;;12.80;84.10;;;;;;972162;145;27380;-76
2022/06/21 00:54:35;;;;;;;2.93;2.70;;;12.80;84.30;;;;;;967153;145;27350;-76
2022/06/21 00:57:02;;;;;;;3.00;2.67;;;12.80;84.40;;;;;;967505;144;27352;-76
2022/06/21 00:59:28;;;;;;;4.43;2.80;;;12.70;84.60;;;;;;969203;145;27337;-75
2022/06/21 01:01:55;;;;;;;2.70;2.50;;;12.70;84.60;;;;;;972828;145;27388;-75
2022/06/21 01:04:22;;;;;;;2.73;2.53;;;12.70;84.80;;;;;;972155;145;27315;-75
2022/06/21 01:06:48;;;;;;;3.53;2.60;;;12.70;85.00;;;;;;965367;145;27340;-76
2022/06/21 01:09:20;;;;;;;3.43;2.30;;;12.70;85.10;;;;;;976112;145;27353;-75
2022/06/21 01:11:47;;;;;;;2.70;2.50;;;12.70;85.40;;;;;;974728;144;27905;-75
2022/06/21 01:14:13;;;;;;;3.53;2.57;;;12.70;85.40;;;;;;975172;145;27359;-76
2022/06/21 01:16:40;;;;;;;3.07;2.63;;;12.70;85.70;;;;;;975061;145;27768;-75
2022/06/21 01:19:09;;;;;;;2.90;2.70;;;12.60;85.70;;;;;;976102;145;27404;-75
2022/06/21 01:21:36;;;;;;;3.03;2.60;;;12.60;85.90;;;;;;971877;145;27858;-76
2022/06/21 01:24:12;;;;;;;4.30;2.83;;;12.60;86.10;;;;;;975982;145;27413;-76
2022/06/21 01:26:47;;;;;;;5.23;2.87;;;12.60;86.30;;;;;;975791;145;27441;-76
2022/06/21 01:29:14;;;;;;;3.33;2.37;;;12.60;86.40;;;;;;977717;145;27310;-75
2022/06/21 01:31:40;;;;;;;3.10;2.80;;;12.50;86.30;;;;;;975985;145;27282;-75
2022/06/21 01:34:10;;;;;;;2.90;2.70;;;12.50;86.50;;;;;;975584;145;27510;-75
2022/06/21 01:36:36;;;;;;;2.47;2.37;;;12.50;86.80;;;;;;970437;145;27354;-75
2022/06/21 01:39:07;;;;;;;3.10;2.80;;;12.50;87.10;;;;;;977393;145;27458;-76
2022/06/21 01:41:45;;;;;;;3.43;2.67;;;12.40;87.20;;;;;;973300;145;27399;-75
2022/06/21 01:44:14;;;;;;;2.80;2.60;;;12.40;87.60;;;;;;944206;145;27331;-75
2022/06/21 01:46:41;;;;;;;3.20;3.00;;;12.50;87.70;;;;;;974497;145;27389;-76
2022/06/21 01:49:10;;;;;;;5.50;3.60;;;12.40;87.90;;;;;;976427;145;27367;-75
2022/06/21 01:51:37;;;;;;;3.13;2.80;;;12.40;88.00;;;;;;972970;145;27273;-75
2022/06/21 01:54:03;;;;;;;3.10;2.90;;;12.40;88.10;;;;;;976047;145;27317;-75
2022/06/21 01:56:30;;;;;;;2.23;2.13;;;12.40;88.40;;;;;;972134;144;27363;-75
2022/06/21 01:59:02;;;;;;;2.83;2.50;;;12.40;88.50;;;;;;971310;145;27437;-76
2022/06/21 02:01:29;;;;;;;2.87;2.67;;;12.40;88.50;;;;;;972692;145;27367;-76
2022/06/21 02:03:55;;;;;;;2.80;2.60;;;12.40;88.60;;;;;;971942;145;27307;-75
2022/06/21 02:06:22;;;;;;;2.83;2.63;;;12.30;88.90;;;;;;974524;144;27403;-76
2022/06/21 02:08:48;;;;;;;2.63;2.33;;;12.40;89.00;;;;;;975510;145;27362;-76
2022/06/21 02:11:15;;;;;;;3.60;3.03;;;12.30;89.00;;;;;;972886;145;27362;-75
2022/06/21 02:13:48;;;;;;;2.70;2.50;;;12.30;89.00;;;;;;970314;145;27777;-75
2022/06/21 02:16:17;;;;;;;3.33;3.03;;;12.30;89.00;;;;;;969824;145;27855;-75
2022/06/21 02:18:53;;;;;;;2.77;2.53;;;12.20;89.00;;;;;;974635;145;27379;-75
2022/06/21 02:21:28;;;;;;;3.50;2.70;;;12.20;89.10;;;;;;978146;145;27343;-75
2022/06/21 02:23:54;;;;;;;3.43;3.20;;;12.10;89.00;;;;;;975431;145;27845;-76
2022/06/21 02:26:21;;;;;;;2.50;2.30;;;12.10;89.20;;;;;;975107;145;27399;-75
2022/06/21 02:28:48;;;;;;;2.93;2.67;;;12.10;88.90;;;;;;974498;145;27227;-75
2022/06/21 02:31:14;;;;;;;2.97;2.77;;;12.10;89.60;;;;;;971186;145;27684;-75
2022/06/21 02:33:41;;;;;;;2.97;2.63;;;12.00;90.20;;;;;;969829;145;27464;-75
2022/06/21 02:36:13;;;;;;;2.80;2.57;;;12.00;90.10;;;;;;975036;145;27270;-75
2022/06/21 02:38:43;;;;;;;2.97;2.73;;;11.90;90.20;;;;;;973661;145;27704;-75
2022/06/21 02:41:12;;;;;;;2.97;2.77;;;11.90;90.20;;;;;;978393;145;27279;-75
2022/06/21 02:43:57;;;;;;;3.00;2.70;;;11.90;90.30;;;;;;972073;145;27329;-75
2022/06/21 02:46:26;;;;;;;3.10;2.80;;;11.90;90.50;;;;;;973050;145;28376;-76
2022/06/21 02:49:01;;;;;;;3.30;2.70;;;11.90;90.50;;;;;;974768;145;27314;-76
2022/06/21 02:51:31;;;;;;;3.13;2.87;;;11.80;90.60;;;;;;971467;145;27364;-76
2022/06/21 02:54:07;;;;;;;2.40;2.30;;;11.80;90.80;;;;;;972959;145;27338;-76
2022/06/21 02:56:48;;;;;;;4.37;3.23;;;11.80;91.00;;;;;;973563;145;27323;-76
2022/06/21 02:59:15;;;;;;;2.90;2.70;;;11.80;91.00;;;;;;972254;145;27261;-76
2022/06/21 03:01:47;;;;;;;3.00;2.80;;;11.80;91.10;;;;;;973722;145;27322;-76
2022/06/21 03:04:20;;;;;;;4.37;3.10;;;11.70;91.20;;;;;;977360;145;27334;-76
2022/06/21 03:06:46;;;;;;;3.60;3.30;;;11.70;91.20;;;;;;972920;145;27281;-76
2022/06/21 03:09:13;;;;;;;3.07;2.77;;;11.70;91.30;;;;;;971835;145;27352;-76
2022/06/21 03:11:46;;;;;;;3.90;3.03;;;11.70;91.50;;;;;;975757;145;27666;-76
2022/06/21 03:14:12;;;;;;;3.77;3.33;;;11.70;91.60;;;;;;974429;145;27389;-76
2022/06/21 03:16:39;;;;;;;3.40;3.10;;;11.70;91.70;;;;;;971591;145;27792;-76
2022/06/21 03:19:05;;;;;;;3.13;2.90;;;11.70;91.80;;;;;;973066;145;27325;-76
2022/06/21 03:21:32;;;;;;;3.63;3.07;;;11.70;91.90;;;;;;970836;145;27332;-76
2022/06/21 03:23:59;;;;;;;4.23;2.90;;;11.70;92.00;;;;;;968812;145;27350;-76
2022/06/21 03:26:26;;;;;;;4.63;3.60;;;11.70;92.20;;;;;;967182;145;27396;-76
2022/06/21 03:28:52;;;;;;;3.60;3.30;;;11.70;92.30;;;;;;972660;145;27400;-76
2022/06/21 03:31:24;;;;;;;3.47;3.17;;;11.70;92.40;;;;;;970434;145;27391;-76
2022/06/21 03:33:53;;;;;;;3.47;2.90;;;11.70;92.60;;;;;;972968;145;27282;-76
2022/06/21 03:36:20;;;;;;;3.20;3.00;;;11.70;92.70;;;;;;970330;145;27416;-76
2022/06/21 03:38:49;;;;;;;4.77;3.30;;;11.80;92.80;;;;;;968953;145;27360;-75
2022/06/21 03:44:00;;;;;;;3.63;3.00;;;11.80;92.90;;;;;;973748;145;27435;-76
2022/06/21 03:46:30;;;;;;;4.37;3.37;;;11.80;92.90;;;;;;973071;145;27438;-75
2022/06/21 03:49:02;;;;;;;3.40;3.20;;;11.80;93.00;;;;;;971236;145;27473;-76
2022/06/21 03:51:31;;;;;;;3.43;3.13;;;11.90;93.20;;;;;;972234;145;28392;-77
2022/06/21 03:54:01;;;;;;;3.67;3.37;;;11.90;93.30;;;;;;975273;145;27455;-77
2022/06/21 03:56:27;;;;;;;3.73;3.27;;;11.90;93.40;;;;;;975622;145;27378;-77
2022/06/21 03:58:57;;;;;;;5.10;3.77;;;12.00;93.60;;;;;;974719;145;27439;-77
2022/06/21 04:01:26;;;;;;;3.30;3.10;;;12.00;93.70;;;;;;972813;145;27344;-76
2022/06/21 04:04:11;;;;;;;3.33;3.03;;;12.10;94.00;;;;;;975305;145;27917;-76
2022/06/21 04:06:38;;;;;;;3.10;2.87;;;12.10;94.00;;;;;;973501;145;27348;-77
2022/06/21 04:09:07;;;;;;;4.13;3.50;;;12.20;94.10;;;;;;975317;145;27336;-76
2022/06/21 04:11:55;;;;;;;3.47;3.27;;;12.20;94.20;;;;;;970326;145;27332;-77
2022/06/21 04:14:24;;;;;;;3.73;3.00;;;12.30;94.40;;;;;;973487;145;27815;-77
2022/06/21 04:16:54;;;;;;;3.97;3.50;;;12.40;94.10;;;;;;974521;145;27331;-77
2022/06/21 04:19:26;;;;;;;5.67;3.53;;;12.40;94.60;;;;;;973301;145;27413;-77
2022/06/21 04:21:52;;;;;;;3.90;3.50;;;12.60;94.80;;;;;;974624;145;27452;-76
2022/06/21 04:24:25;;;;;;;3.53;3.33;;;12.60;94.90;;;;;;972556;145;27274;-76
2022/06/21 04:27:00;;;;;;;4.47;4.07;;;12.80;95.00;;;;;;972672;145;27270;-77
2022/06/21 04:29:35;;;;;;;4.47;3.80;;;12.90;95.10;;;;;;974245;145;28073;-76
2022/06/21 04:32:02;;;;;;;5.13;4.63;;;13.00;95.10;;;;;;974316;145;28346;-77
2022/06/21 04:34:28;;;;;;;4.97;4.43;;;13.10;95.20;;;;;;973656;145;27404;-77
2022/06/21 04:37:10;;;;;;;5.17;3.93;;;13.20;95.40;;;;;;974921;145;27361;-76
2022/06/21 04:39:39;;;;;;;3.73;3.43;;;13.40;95.60;;;;;;975492;145;27377;-77
2022/06/21 04:42:09;;;;;;;4.20;3.43;;;13.60;95.80;;;;;;971275;145;27231;-76
2022/06/21 04:44:44;;;;;;;3.77;3.23;;;13.70;95.70;;;;;;970222;145;27768;-77
2022/06/21 04:47:16;;;;;;;3.60;3.30;;;13.90;95.90;;;;;;972947;145;27346;-77
2022/06/21 04:49:42;;;;;;;3.83;3.00;;;14.10;96.10;;;;;;960988;145;27311;-77
2022/06/21 04:52:09;;;;;;;3.10;2.80;;;14.30;96.30;;;;;;973324;145;27314;-77
2022/06/21 04:54:36;;;;;;;3.20;2.90;;;14.60;96.80;;;;;;973240;145;27251;-77
2022/06/21 04:57:14;;;;;;;3.00;2.80;;;14.90;98.10;;;;;;969595;145;27424;-77
2022/06/21 04:59:40;;;;;;;4.50;2.60;;;15.30;99.20;;;;;;976500;144;27282;-77
2022/06/21 05:02:07;;;;;;;2.70;2.50;;;16.00;99.90;;;;;;974890;145;27686;-77
2022/06/21 05:04:36;;;;;;;3.35;2.87;;;16.70;99.90;;;;;;974730;144;27374;-77
2022/06/21 05:07:03;;;;;;;2.25;2.15;;;17.50;99.90;;;;;;974555;144;27360;-77
2022/06/21 05:09:29;;;;;;;2.05;1.82;;;18.30;99.90;;;;;;975859;145;27814;-78
2022/06/21 05:11:58;;;;;;;2.22;2.02;;;19.20;99.90;;;;;;974159;145;28235;-78
2022/06/21 05:14:26;;;;;;;2.20;1.98;;;20.20;98.20;;;;;;965279;145;27341;-78
2022/06/21 05:16:52;;;;;;;2.22;2.02;;;21.20;96.00;;;;;;969825;145;27340;-78
2022/06/21 05:19:30;;;;;;;2.02;1.92;;;22.10;94.60;;;;;;971579;145;27424;-78
2022/06/21 05:21:57;;;;;;;3.87;2.25;;;23.00;92.50;;;;;;970256;145;27341;-78
2022/06/21 05:24:23;;;;;;;2.25;2.02;;;24.00;90.40;;;;;;972469;145;27327;-78
2022/06/21 05:27:02;;;;;;;2.40;2.17;;;24.80;85.30;;;;;;970957;145;27434;-78
2022/06/21 05:29:56;;;;;;;2.52;2.33;;;25.60;80.50;;;;;;972176;145;28585;-78
2022/06/21 05:32:22;;;;;;;2.30;2.10;;;26.40;76.90;;;;;;972060;145;27366;-77
2022/06/21 05:34:49;;;;;;;3.47;2.02;;;27.10;73.90;;;;;;974510;145;27322;-77
2022/06/21 05:37:31;;;;;;;3.22;2.33;;;27.80;71.00;;;;;;973095;145;27390;-77
2022/06/21 05:39:57;;;;;;;2.02;1.82;;;28.30;69.00;;;;;;970974;145;27371;-77
2022/06/21 05:44:50;;;;;;;2.10;2.00;;;28.90;67.60;;;;;;976130;145;37134;-71
2022/06/21 05:47:27;;;;;;;1.98;1.87;;;30.10;65.00;;;;;;963700;146;27331;-71
2022/06/21 05:49:54;;;;;;;2.45;1.90;;;30.70;63.10;;;;;;963678;146;27327;-72
2022/06/21 05:52:21;;;;;;;2.02;1.92;;;31.30;61.40;;;;;;964268;146;27340;-71
2022/06/21 05:55:02;;;;;;;2.22;2.00;;;31.80;59.80;;;;;;965765;146;27317;-71
2022/06/21 05:57:31;;;;;;;3.10;1.90;;;32.30;58.30;;;;;;963675;146;27291;-71
2022/06/21 05:59:58;;;;;;;1.57;1.47;;;32.80;57.40;;;;;;943003;146;27397;-72
2022/06/21 06:02:24;;;;;;;2.58;2.00;;;33.30;56.40;;;;;;965269;146;27373;-71
2022/06/21 06:04:57;;;;;;;2.75;1.75;;;33.60;55.20;;;;;;963007;146;27308;-71
2022/06/21 06:07:35;;;;;;;2.33;1.85;;;34.10;54.20;;;;;;963026;146;27333;-72
2022/06/21 06:10:03;;;;;;;1.40;1.30;;;34.50;53.80;;;;;;955993;147;27331;-71
2022/06/21 06:12:31;;;;;;;1.52;1.42;;;35.00;53.20;;;;;;953971;147;27368;-71
2022/06/21 06:15:06;;;;;;;2.10;1.55;;;35.50;52.50;;;;;;955389;147;27464;-72
2022/06/21 06:17:48;;;;;;;1.98;1.35;;;35.90;51.40;;;;;;951866;147;26221;-73
2022/06/21 06:20:32;;;;;;;1.50;1.40;;;36.40;50.30;;;;;;953812;147;26245;-72
2022/06/21 06:23:14;;;;;;;2.42;1.75;;;36.80;49.30;;;;;;955106;147;26262;-72
2022/06/21 06:25:41;;;;;;;2.70;1.80;;;37.20;48.30;;;;;;955021;147;26160;-71
2022/06/21 06:28:29;;;;;;;1.67;1.52;;;37.40;47.40;;;;;;954893;147;26217;-72
2022/06/21 06:31:33;;;;;;;1.60;1.50;;;37.70;47.10;;;;;;953212;147;26308;-72
2022/06/21 06:34:02;;;;;;;1.42;1.30;;;37.90;45.70;;;;;;954581;147;26236;-72
2022/06/21 06:36:29;;;;;;;3.45;1.72;;;38.10;45.40;;;;;;952043;147;26325;-72
2022/06/21 06:38:55;;;;;;;2.20;2.00;;;38.20;44.60;;;;;;954136;147;26212;-72
2022/06/21 06:41:28;;;;;;;2.00;1.80;;;38.30;44.20;;;;;;955258;147;26256;-72
2022/06/21 06:43:55;;;;;;;2.10;1.90;;;38.40;43.50;;;;;;951421;147;26250;-71
2022/06/21 06:46:33;;;;;;;2.52;1.67;;;38.60;43.10;;;;;;944754;149;27281;-72
2022/06/21 06:49:02;;;;;;;1.90;1.52;;;38.80;42.90;;;;;;945520;149;26192;-72
2022/06/21 06:51:31;;;;;;;2.02;1.82;;;39.00;42.80;;;;;;943842;149;26255;-72
2022/06/21 06:53:58;;;;;;;1.80;1.67;;;39.30;42.20;;;;;;942539;149;26308;-72
2022/06/21 06:56:27;;;;;;;1.52;1.42;;;39.60;41.60;;;;;;943588;149;26334;-72
2022/06/21 06:59:05;;;;;;;3.55;2.10;;;39.70;40.90;;;;;;942202;149;26394;-73
2022/06/21 07:01:43;;;;;;;2.42;1.85;;;40.00;40.50;;;;;;944569;149;28399;-72
2022/06/21 07:04:10;;;;;;;1.67;1.57;;;40.10;38.90;;;;;;943056;149;26228;-72
2022/06/21 07:06:48;;;;;;;2.00;1.50;;;40.20;38.80;;;;;;940268;149;26272;-72
2022/06/21 07:09:27;;;;;;;1.55;1.30;;;40.20;38.60;;;;;;945049;149;26390;-73
2022/06/21 07:12:15;;;;;;;1.55;1.37;;;40.40;38.70;;;;;;942301;149;26261;-72
2022/06/21 07:14:41;;;;;;;2.08;1.50;;;40.50;38.00;;;;;;945419;149;26206;-72
2022/06/21 07:17:19;;;;;;;2.25;1.77;;;40.70;38.40;;;;;;945712;149;26233;-72
2022/06/21 07:19:46;;;;;;;2.15;1.67;;;40.90;37.30;;;;;;942840;149;26231;-73
2022/06/21 07:22:18;;;;;;;2.52;1.35;;;41.20;37.10;;;;;;941650;149;26153;-72
2022/06/21 07:24:44;;;;;;;1.50;1.40;;;41.20;36.70;;;;;;944102;149;26335;-72
2022/06/21 07:27:13;;;;;;;2.77;1.35;;;41.50;36.30;;;;;;946279;149;26312;-72
2022/06/21 07:29:46;;;;;;;1.67;1.22;;;41.60;35.90;;;;;;944714;149;26347;-72
2022/06/21 07:32:13;;;;;;;2.35;1.42;;;41.80;35.70;;;;;;942908;149;26162;-73
2022/06/21 07:34:45;;;;;;;1.80;1.50;;;42.10;35.30;;;;;;944162;149;26227;-72
2022/06/21 07:37:11;;;;;;;2.27;1.32;;;42.20;34.70;;;;;;945654;149;26238;-73
2022/06/21 07:39:50;;;;;;;2.30;1.37;;;42.40;34.50;;;;;;922929;149;26357;-72
2022/06/21 07:42:20;;;;;;;4.60;1.47;;;42.60;34.10;;;;;;943609;149;26262;-72
2022/06/21 07:44:59;;;;;;;1.98;1.20;;;42.90;33.50;;;;;;951728;146;26215;-73
2022/06/21 07:47:32;;;;;;;2.72;1.60;;;43.00;32.90;;;;;;962053;146;26248;-74
2022/06/21 07:49:57;;;;;;;1.35;1.22;;;43.10;32.80;;;;;;963270;146;26215;-74
2022/06/21 07:52:30;;;;;;;1.40;1.17;;;43.10;32.50;;;;;;963419;146;26263;-73
2022/06/21 07:55:30;;;;;;;1.42;1.27;;;43.30;31.50;;;;;;959375;146;26307;-72
2022/06/21 07:57:59;;;;;;;0.95;0.85;;;43.30;31.60;;;;;;962127;146;26225;-73
2022/06/21 08:00:25;;;;;;;2.15;1.50;;;43.30;31.60;;;;;;960695;146;26244;-72
2022/06/21 08:08:30;;;;;;;2.40;1.30;;;43.40;30.70;;;;;;964020;146;26334;-73
2022/06/21 08:10:59;;;;;;;1.95;1.15;;;43.40;30.60;;;;;;962168;146;26461;-74
2022/06/21 08:13:26;;;;;;;2.22;1.40;;;43.40;30.40;;;;;;963547;146;26360;-73
2022/06/21 08:15:52;;;;;;;1.67;1.32;;;43.50;30.00;;;;;;964376;146;26211;-73
2022/06/21 08:18:28;;;;;;;2.15;1.20;;;43.50;30.30;;;;;;961345;146;27834;-73
2022/06/21 08:20:57;;;;;;;1.35;1.07;;;43.50;29.70;;;;;;961903;146;26326;-73
2022/06/21 08:23:24;;;;;;;2.33;1.40;;;43.50;29.50;;;;;;961166;146;26315;-74
2022/06/21 08:26:00;;;;;;;1.67;1.10;;;43.50;29.30;;;;;;962732;146;26605;-73
2022/06/21 08:28:26;;;;;;;1.57;1.10;;;43.50;29.30;;;;;;954995;146;26243;-73
2022/06/21 08:30:56;;;;;;;2.45;1.15;;;43.50;29.30;;;;;;963769;146;26172;-73
2022/06/21 08:33:28;;;;;;;1.07;1.00;;;43.60;29.30;;;;;;963220;146;26321;-73
2022/06/21 08:35:58;;;;;;;1.30;1.00;;;43.80;29.20;;;;;;941710;146;26313;-74
2022/06/21 08:38:33;;;;;;;0.98;0.82;;;43.90;28.70;;;;;;963319;146;26262;-75
2022/06/21 08:44:09;;;;;;;1.98;1.10;;;43.80;27.60;;;;;;963334;146;26232;-73
2022/06/21 08:46:47;;;;;;;2.50;1.37;;;43.50;27.60;;;;;;920810;146;26332;-74
2022/06/21 08:49:14;;;;;;;1.42;1.00;;;43.10;27.30;;;;;;963547;146;26262;-74
2022/06/21 08:51:49;;;;;;;1.75;1.27;;;42.70;27.50;;;;;;962504;146;26328;-72
2022/06/21 08:54:28;;;;;;;1.52;1.42;;;42.20;27.50;;;;;;961630;146;26243;-72
2022/06/21 08:57:03;;;;;;;2.52;1.42;;;41.90;27.00;;;;;;962435;146;26286;-73
2022/06/21 08:59:53;;;;;;;1.85;1.07;;;41.50;27.20;;;;;;963272;146;26232;-74
2022/06/21 09:02:26;;;;;;;1.22;0.90;;;41.20;27.30;;;;;;960765;146;26254;-72
2022/06/21 09:05:14;;;;;;;2.17;1.10;;;40.70;27.80;;;;;;959822;146;27934;-72
2022/06/21 09:07:40;;;;;;;1.10;1.00;;;40.50;27.80;;;;;;962640;146;26208;-72
2022/06/21 09:10:10;;;;;;;3.37;1.12;;;40.30;27.60;;;;;;962146;146;26208;-73
2022/06/21 09:13:01;;;;;;;2.10;1.17;;;40.10;27.70;;;;;;962184;146;26268;-75
2022/06/21 09:15:46;;;;;;;1.60;1.00;;;39.80;28.10;;;;;;963455;146;26221;-74
2022/06/21 09:18:18;;;;;;;3.10;1.10;;;39.60;27.80;;;;;;962764;146;26264;-72
2022/06/21 09:21:03;;;;;;;1.95;0.95;;;39.50;27.60;;;;;;964818;146;26364;-72
2022/06/21 09:23:50;;;;;;;1.20;0.80;;;39.20;27.20;;;;;;963724;146;26345;-72
2022/06/21 09:26:17;;;;;;;0.98;0.98;;;38.80;27.00;;;;;;961838;146;26242;-72
2022/06/21 09:28:43;;;;;;;2.10;1.42;;;38.40;27.20;;;;;;960728;146;26341;-72
2022/06/21 09:31:29;;;;;;;1.80;1.10;;;38.00;27.30;;;;;;963681;146;26213;-72
2022/06/21 09:33:58;;;;;;;2.17;1.10;;;37.70;27.50;;;;;;961738;146;26212;-71
2022/06/21 09:36:49;;;;;;;2.02;1.67;;;37.40;27.70;;;;;;962813;146;26316;-71
2022/06/21 09:39:15;;;;;;;1.15;1.07;;;37.20;27.70;;;;;;962750;146;26218;-72
2022/06/21 09:41:51;;;;;;;1.85;1.32;;;36.90;28.10;;;;;;961581;146;28260;-72
2022/06/21 09:44:23;;;;;;;1.20;1.00;;;36.80;28.70;;;;;;963815;146;26341;-72
2022/06/21 09:47:23;;;;;;;1.35;1.20;;;36.70;28.30;;;;;;942041;146;26232;-72
2022/06/21 09:49:55;;;;;;;1.85;1.20;;;36.60;28.40;;;;;;962221;146;26223;-72
2022/06/21 09:52:22;;;;;;;2.95;1.05;;;36.60;28.90;;;;;;964343;146;26215;-72
2022/06/21 09:55:09;;;;;;;2.80;1.12;;;36.50;28.50;;;;;;963057;146;26252;-74
2022/06/21 09:57:45;;;;;;;1.00;0.93;;;36.40;28.40;;;;;;965290;146;27348;-72
2022/06/21 10:00:16;;;;;;;2.12;1.07;;;36.10;28.20;;;;;;964298;146;27400;-73
2022/06/21 10:02:46;;;;;;;1.12;0.98;;;35.70;28.00;;;;;;963142;146;27425;-74
2022/06/21 10:05:42;;;;;;;1.27;1.10;;;35.30;28.20;;;;;;961651;146;27452;-71
2022/06/21 10:08:14;;;;;;;0.80;0.80;;;34.80;28.00;;;;;;946102;146;27826;-72
2022/06/21 10:11:01;;;;;;;1.30;1.10;;;34.30;28.30;;;;;;963293;146;27336;-72
2022/06/21 10:13:52;;;;;;;1.42;1.30;;;33.80;28.40;;;;;;963155;146;27407;-72
2022/06/21 10:16:34;;;;;;;2.27;1.22;;;33.40;28.70;;;;;;962102;146;27380;-71
2022/06/21 10:19:03;;;;;;;3.27;1.42;;;33.00;29.20;;;;;;939522;146;27305;-71
2022/06/21 10:21:32;;;;;;;2.72;1.20;;;32.70;29.70;;;;;;960886;146;27544;-73
2022/06/21 10:24:08;;;;;;;1.67;1.12;;;32.50;29.90;;;;;;926463;145;28595;-72
2022/06/21 10:26:40;;;;;;;2.10;1.30;;;32.40;30.00;;;;;;961053;146;27306;-72
2022/06/21 10:29:25;;;;;;;1.22;1.10;;;32.30;30.10;;;;;;964001;145;27431;-72
2022/06/21 10:31:57;;;;;;;1.15;1.00;;;32.30;30.20;;;;;;962459;146;27418;-72
2022/06/21 10:34:36;;;;;;;1.92;1.10;;;32.10;30.00;;;;;;961813;146;27402;-73
2022/06/21 10:37:14;;;;;;;2.17;1.20;;;32.00;30.10;;;;;;962543;146;27335;-73
2022/06/21 10:40:15;;;;;;;2.42;1.32;;;31.90;30.40;;;;;;963885;146;27664;-72
2022/06/21 10:42:50;;;;;;;1.45;1.30;;;31.80;30.70;;;;;;963841;146;27312;-73
2022/06/21 10:45:40;;;;;;;1.60;1.20;;;31.80;30.70;;;;;;960346;146;27436;-72
2022/06/21 10:48:38;;;;;;;1.82;1.30;;;31.80;30.70;;;;;;963998;146;27825;-72
2022/06/21 10:51:07;;;;;;;3.98;1.00;;;31.70;30.90;;;;;;963819;146;27427;-72
2022/06/21 10:53:45;;;;;;;2.20;1.10;;;31.70;31.00;;;;;;961864;146;27234;-72
2022/06/21 10:59:21;;;;;;;1.10;1.00;;;31.60;30.80;;;;;;963324;146;27435;-75
2022/06/21 11:01:56;;;;;;;1.30;1.07;;;31.50;30.90;;;;;;962038;146;27346;-72
2022/06/21 11:04:47;;;;;;;2.90;1.55;;;31.40;31.30;;;;;;941951;146;27387;-72
2022/06/21 11:07:25;;;;;;;1.75;1.20;;;31.20;31.30;;;;;;962832;145;27303;-72
2022/06/21 11:09:52;;;;;;;1.42;0.93;;;31.00;31.20;;;;;;963396;146;27320;-72
2022/06/21 11:15:27;;;;;;;1.70;1.30;;;30.80;31.90;;;;;;964019;146;27459;-73
2022/06/21 11:18:02;;;;;;;1.40;1.30;;;30.70;32.00;;;;;;963983;145;27412;-72
2022/06/21 11:20:47;;;;;;;1.57;1.20;;;30.60;32.10;;;;;;963150;145;27315;-72
2022/06/21 11:23:47;;;;;;;2.37;1.50;;;30.40;32.10;;;;;;964116;146;27304;-72
2022/06/21 11:26:21;;;;;;;2.12;1.20;;;30.30;32.20;;;;;;961830;145;27388;-75
2022/06/21 11:28:52;;;;;;;3.12;1.85;;;30.10;32.40;;;;;;961945;146;27408;-72
2022/06/21 11:31:27;;;;;;;1.95;0.90;;;30.00;32.60;;;;;;963118;146;27656;-72
2022/06/21 11:34:21;;;;;;;2.62;1.32;;;29.80;32.70;;;;;;963107;146;27380;-72
2022/06/21 11:36:48;;;;;;;1.67;1.10;;;29.80;32.90;;;;;;963874;146;27342;-72
2022/06/21 11:39:14;;;;;;;1.20;1.10;;;29.70;33.20;;;;;;961989;146;27344;-72
2022/06/21 11:42:05;;;;;;;1.20;1.10;;;29.70;33.10;;;;;;963410;145;27389;-72
2022/06/21 11:44:51;;;;;;;1.12;1.00;;;29.70;33.00;;;;;;963922;146;27351;-74
2022/06/21 11:47:26;;;;;;;1.30;0.93;;;29.60;32.80;;;;;;960097;146;28420;-72
2022/06/21 11:49:58;;;;;;;2.62;1.17;;;29.60;32.90;;;;;;954637;146;27316;-72
2022/06/21 11:52:56;;;;;;;2.92;1.72;;;29.60;33.00;;;;;;953681;146;27335;-73
2022/06/21 11:55:28;;;;;;;1.75;1.40;;;29.50;33.20;;;;;;932468;146;27416;-73
2022/06/21 11:58:13;;;;;;;1.77;1.00;;;29.60;33.40;;;;;;955367;146;27434;-73
2022/06/21 12:00:54;;;;;;;1.52;0.93;;;29.70;33.60;;;;;;954890;146;27340;-73
2022/06/21 12:03:54;;;;;;;1.37;0.80;;;29.80;33.30;;;;;;952063;146;27339;-72
2022/06/21 12:06:29;;;;;;;0.85;0.80;;;29.90;33.00;;;;;;953522;146;27305;-72
2022/06/21 12:08:53;;;;;;;1.05;0.98;;;30.00;32.90;;;;;;953311;146;27453;-74
2022/06/21 12:11:26;;;;;;;1.12;1.05;;;30.00;32.70;;;;;;954455;146;27352;-72
2022/06/21 12:14:13;;;;;;;1.22;0.80;;;30.10;32.70;;;;;;953873;146;27321;-72
2022/06/21 12:16:46;;;;;;;1.67;1.02;;;30.10;32.80;;;;;;955187;146;27766;-73
2022/06/21 12:19:18;;;;;;;1.57;1.07;;;30.10;33.10;;;;;;952478;146;27278;-72
2022/06/21 12:21:45;;;;;;;1.25;1.00;;;30.10;33.00;;;;;;953761;146;27900;-74
2022/06/21 12:24:17;;;;;;;1.32;1.22;;;30.20;32.90;;;;;;953901;146;27346;-73
2022/06/21 12:26:44;;;;;;;1.62;1.52;;;30.20;32.70;;;;;;954518;146;27273;-72
2022/06/21 12:29:16;;;;;;;2.17;0.98;;;30.30;32.70;;;;;;955444;146;27333;-73
2022/06/21 12:31:47;;;;;;;2.37;1.10;;;30.30;32.70;;;;;;954520;146;27500;-72
2022/06/21 12:34:12;;;;;;;1.40;1.27;;;30.40;32.30;;;;;;952679;146;27376;-72
2022/06/21 12:36:47;;;;;;;1.32;1.00;;;30.40;33.00;;;;;;952807;146;27322;-73
2022/06/21 12:39:33;;;;;;;1.65;1.50;;;30.50;33.10;;;;;;953980;146;27362;-74
2022/06/21 12:42:24;;;;;;;1.82;1.12;;;30.60;33.20;;;;;;949020;146;27647;-74
2022/06/21 12:44:50;;;;;;;1.05;0.95;;;30.80;33.50;;;;;;951070;146;27441;-74
2022/06/21 12:47:32;;;;;;;1.65;1.07;;;31.00;33.50;;;;;;949359;146;27402;-72
2022/06/21 12:50:32;;;;;;;1.85;1.67;;;31.20;33.30;;;;;;937538;149;27417;-72
2022/06/21 12:53:04;;;;;;;1.20;1.10;;;31.50;33.10;;;;;;938586;149;27319;-73
2022/06/21 12:55:52;;;;;;;1.25;1.15;;;31.60;32.60;;;;;;938913;149;27273;-73
2022/06/21 12:58:55;;;;;;;0.98;0.82;;;31.80;32.40;;;;;;939269;149;27358;-73
2022/06/21 13:01:22;;;;;;;1.47;0.93;;;31.80;32.30;;;;;;937671;149;27432;-73
2022/06/21 13:04:01;;;;;;;1.15;1.10;;;31.80;32.30;;;;;;937055;149;27393;-72
2022/06/21 13:06:34;;;;;;;1.60;1.07;;;31.80;32.20;;;;;;937081;149;27345;-72
2022/06/21 13:09:34;;;;;;;1.50;1.02;;;31.80;32.20;;;;;;939083;149;27459;-72
2022/06/21 13:12:03;;;;;;;1.17;0.80;;;31.80;32.10;;;;;;938109;149;27323;-73
2022/06/21 13:14:29;;;;;;;4.22;0.95;;;31.80;32.00;;;;;;936049;149;27363;-75
2022/06/21 13:17:08;;;;;;;1.02;1.00;;;31.80;32.10;;;;;;938732;149;27353;-73
2022/06/21 13:19:53;;;;;;;3.10;1.17;;;31.70;32.10;;;;;;937670;149;27665;-72
2022/06/21 13:22:42;;;;;;;0.57;0.57;;;31.80;32.30;;;;;;935293;149;27412;-72
2022/06/21 13:25:35;;;;;;;2.70;1.10;;;31.70;32.00;;;;;;939738;149;27276;-72
2022/06/21 13:28:04;;;;;;;1.05;0.95;;;31.70;31.90;;;;;;938477;149;27284;-72
2022/06/21 13:30:34;;;;;;;2.58;1.10;;;31.70;31.80;;;;;;938839;149;27428;-72
2022/06/21 13:33:13;;;;;;;1.42;0.90;;;31.70;31.60;;;;;;937553;149;27315;-73
2022/06/21 13:35:51;;;;;;;0.95;0.93;;;31.60;31.50;;;;;;937494;149;27322;-73
2022/06/21 13:38:42;;;;;;;1.87;0.80;;;31.50;31.30;;;;;;939559;149;27321;-73